Time;durP1;ratioP1;P1;durP2;ratioP2;P2;SDS_P1;SDS_P2;PMS_P1;PMS_P2;Temp;Humidity;BMP_temperature;BMP_pressure;BME280_temperature;BME280_humidity;BME280_pressure;Samples;Min_cycle;Max_cycle;Signal;HPM_P1;HPM_P2
2023/07/22 00:01:02;;;;;;;15.38;8.75;;;13.30;99.90;;;-144.05;65.95;56867.94;5072470;28;20038;-84
2023/07/22 00:03:28;;;;;;;17.13;8.93;;;13.20;99.90;;;-144.05;66.05;56895.56;5073788;28;20035;-84
2023/07/22 00:06:10;;;;;;;12.60;8.38;;;13.20;99.90;;;-144.05;66.56;56895.56;5073472;28;20077;-83
2023/07/22 00:08:38;;;;;;;12.82;9.05;;;13.10;99.90;;;-144.05;66.56;56895.56;5073539;28;20526;-84
2023/07/22 00:11:06;;;;;;;12.23;8.82;;;13.10;99.90;;;-144.05;67.76;56872.19;5077847;28;20024;-86
2023/07/22 00:13:33;;;;;;;15.55;9.20;;;13.10;99.90;;;-144.05;68.23;56901.94;5094147;28;20027;-82
2023/07/22 00:16:00;;;;;;;15.30;8.32;;;13.00;99.90;;;-144.05;68.14;56878.56;5073562;28;20028;-83
2023/07/22 00:18:27;;;;;;;14.43;8.57;;;13.10;99.90;;;-144.05;68.58;56876.44;5074050;28;20039;-84
2023/07/22 00:20:55;;;;;;;13.15;9.60;;;13.10;99.90;;;-144.05;68.46;56887.06;5075189;28;20113;-81
2023/07/22 00:23:21;;;;;;;11.75;8.32;;;13.10;99.90;;;-144.05;68.28;56893.44;5092138;28;20077;-84
2023/07/22 00:25:48;;;;;;;14.68;8.77;;;13.10;99.90;;;-144.05;68.42;56870.06;5088938;28;20024;-79
2023/07/22 00:28:14;;;;;;;12.73;7.60;;;13.10;99.90;;;-144.05;68.22;56878.56;5071139;28;20041;-79
2023/07/22 00:30:41;;;;;;;12.05;7.95;;;13.00;99.90;;;-144.05;68.30;56874.31;5071280;28;20036;-80
2023/07/22 00:33:08;;;;;;;13.23;8.65;;;13.00;99.90;;;-144.05;68.49;56895.56;5071596;28;20029;-81
2023/07/22 00:35:35;;;;;;;13.48;8.80;;;13.00;99.90;;;-144.05;68.47;56895.56;5053648;28;20090;-82
2023/07/22 00:38:01;;;;;;;11.05;8.20;;;13.00;99.90;;;-144.05;68.59;56918.94;5070472;28;20032;-81
2023/07/22 00:40:31;;;;;;;16.92;8.95;;;13.00;99.90;;;-144.05;68.65;56901.94;5071247;28;20100;-81
2023/07/22 00:42:58;;;;;;;15.73;8.93;;;12.90;99.90;;;-144.05;68.82;56908.31;5052812;28;20040;-82
2023/07/22 00:45:25;;;;;;;18.05;8.63;;;13.00;99.90;;;-144.05;68.64;56895.56;5070828;28;20056;-81
2023/07/22 00:47:51;;;;;;;17.33;9.15;;;13.00;99.90;;;-144.05;68.74;56897.69;5052961;28;20040;-81
2023/07/22 00:50:17;;;;;;;19.92;8.95;;;13.00;99.90;;;-144.05;68.62;56872.19;5071092;28;20028;-80
2023/07/22 00:52:43;;;;;;;18.95;9.68;;;13.10;99.90;;;-144.05;68.47;56908.31;5053191;28;20062;-80
2023/07/22 00:55:09;;;;;;;17.83;8.95;;;13.10;99.90;;;-144.05;68.35;56901.94;5053516;28;20143;-81
2023/07/22 00:57:36;;;;;;;14.35;8.05;;;13.10;99.90;;;-144.05;68.10;56929.53;5053421;28;20123;-82
2023/07/22 01:00:05;;;;;;;15.25;7.90;;;13.10;99.90;;;-144.05;68.22;56906.19;5053198;28;20037;-81
2023/07/22 01:02:34;;;;;;;14.98;8.45;;;13.10;99.90;;;-144.05;68.16;56904.06;5053208;28;20435;-81
2023/07/22 01:05:00;;;;;;;16.17;9.77;;;13.10;99.90;;;-144.05;67.98;56891.31;5071401;28;20090;-83
2023/07/22 01:07:26;;;;;;;20.52;10.18;;;13.10;99.90;;;-144.05;68.49;56901.94;5053395;28;20029;-82
2023/07/22 01:09:58;;;;;;;23.15;10.32;;;13.10;99.90;;;-144.05;68.62;56895.56;5069815;28;20029;-83
2023/07/22 01:12:24;;;;;;;17.65;9.77;;;13.10;99.90;;;-144.05;68.51;56882.81;5054415;28;20523;-82
2023/07/22 01:14:50;;;;;;;16.70;9.18;;;13.20;99.90;;;-144.05;68.62;56865.81;5056733;28;20469;-83
2023/07/22 01:17:16;;;;;;;16.55;9.27;;;13.20;99.90;;;-144.05;68.40;56876.44;5057411;28;20033;-83
2023/07/22 01:19:44;;;;;;;15.18;8.90;;;13.20;99.90;;;-144.05;68.37;56884.94;5074844;28;20060;-82
2023/07/22 01:22:13;;;;;;;13.95;9.23;;;13.20;99.90;;;-144.05;68.06;56912.56;5057039;28;20481;-83
2023/07/22 01:24:39;;;;;;;19.40;9.50;;;13.20;99.90;;;-144.05;68.11;56904.06;5057579;28;20098;-83
2023/07/22 01:27:09;;;;;;;18.38;9.10;;;13.20;99.90;;;-144.05;68.29;56916.81;5068776;28;20036;-85
2023/07/22 01:29:36;;;;;;;18.38;10.18;;;13.10;99.90;;;-144.05;68.56;56908.31;5077851;28;20499;-81
2023/07/22 01:32:03;;;;;;;13.38;8.95;;;13.10;99.90;;;-144.05;69.04;56891.31;5078345;28;20032;-82
2023/07/22 01:34:29;;;;;;;15.75;9.50;;;13.00;99.90;;;-144.05;69.06;56889.19;5078830;28;20020;-84
2023/07/22 01:36:55;;;;;;;15.63;9.50;;;13.00;99.90;;;-144.05;69.32;56893.44;5077973;28;20060;-85
2023/07/22 01:39:21;;;;;;;17.15;10.18;;;12.90;99.90;;;-144.05;69.60;56916.81;5078439;28;20468;-84
2023/07/22 01:41:48;;;;;;;14.35;9.32;;;12.90;99.90;;;-144.05;69.44;56908.31;5078151;28;20028;-83
2023/07/22 01:44:14;;;;;;;13.18;8.80;;;12.90;99.90;;;-144.05;69.43;56901.94;5093851;28;20070;-80
2023/07/22 01:46:41;;;;;;;14.45;8.77;;;12.90;99.90;;;-144.05;69.72;56882.81;5096919;28;20036;-80
2023/07/22 01:49:12;;;;;;;16.70;8.98;;;12.90;99.90;;;-144.05;69.85;56895.56;5094186;28;20099;-81
2023/07/22 01:51:42;;;;;;;17.77;8.57;;;12.90;99.90;;;-144.05;69.89;56906.19;5075496;28;20356;-80
2023/07/22 01:54:09;;;;;;;18.08;9.20;;;12.90;99.90;;;-144.05;70.17;56872.19;5075981;28;20343;-82
2023/07/22 01:56:37;;;;;;;18.58;9.43;;;12.90;99.90;;;-144.05;69.79;56897.69;5094109;28;20023;-79
2023/07/22 01:59:03;;;;;;;14.10;8.88;;;12.90;99.90;;;-144.05;69.96;56891.31;5075797;28;20028;-80
2023/07/22 02:01:29;;;;;;;15.23;8.98;;;12.90;99.90;;;-144.05;70.10;56889.19;5075640;28;20123;-83
2023/07/22 02:03:55;;;;;;;12.60;9.38;;;12.90;99.90;;;-144.05;70.59;56912.56;5076142;28;20067;-81
2023/07/22 02:06:21;;;;;;;16.42;8.85;;;12.90;99.90;;;-144.05;70.31;56891.31;5075809;28;20053;-83
2023/07/22 02:08:47;;;;;;;13.65;9.07;;;12.90;99.90;;;-144.05;70.22;56855.22;5075810;28;20024;-83
2023/07/22 02:11:13;;;;;;;16.85;9.40;;;12.90;99.90;;;-144.05;69.99;56906.19;5075806;28;20042;-84
2023/07/22 02:13:39;;;;;;;15.38;9.35;;;13.00;99.90;;;-144.05;69.82;56906.19;5113398;28;20058;-79
2023/07/22 02:16:05;;;;;;;13.00;8.80;;;12.90;99.90;;;-144.05;69.90;56904.06;5096820;28;20039;-80
2023/07/22 02:18:31;;;;;;;17.17;10.57;;;12.90;99.90;;;-144.05;70.18;56912.56;5097984;28;20028;-81
2023/07/22 02:20:57;;;;;;;15.75;9.13;;;13.00;99.90;;;-144.05;70.56;56901.94;5094356;28;20043;-80
2023/07/22 02:23:24;;;;;;;13.15;8.85;;;12.90;99.90;;;-144.05;70.47;56893.44;5097832;28;20040;-80
2023/07/22 02:25:53;;;;;;;13.15;9.25;;;13.00;99.90;;;-144.05;70.45;56906.19;5075596;28;20028;-83
2023/07/22 02:28:22;;;;;;;15.38;9.40;;;12.90;99.90;;;-144.05;70.45;56895.56;5086229;28;20038;-83
2023/07/22 02:30:52;;;;;;;14.00;8.82;;;13.00;99.90;;;-144.05;70.65;56901.94;5079208;28;20028;-83
2023/07/22 02:33:21;;;;;;;14.07;9.70;;;13.00;99.90;;;-144.05;70.43;56893.44;5077125;28;20032;-80
2023/07/22 02:35:48;;;;;;;13.90;9.45;;;12.90;99.90;;;-144.05;70.16;56901.94;5095729;28;20496;-81
2023/07/22 02:38:14;;;;;;;14.10;8.93;;;12.90;99.90;;;-144.05;69.72;56910.44;5095419;28;20452;-81
2023/07/22 02:40:41;;;;;;;17.67;10.32;;;12.90;99.90;;;-144.05;69.87;56912.56;5095125;28;20028;-83
2023/07/22 02:43:07;;;;;;;13.98;8.38;;;13.00;99.90;;;-144.05;69.78;56904.06;5077174;28;20364;-80
2023/07/22 02:45:34;;;;;;;15.98;8.07;;;13.00;99.90;;;-144.05;69.63;56889.19;5076787;28;20456;-81
2023/07/22 02:48:00;;;;;;;18.85;8.77;;;13.00;99.90;;;-144.05;69.98;56910.44;5076450;28;20380;-81
2023/07/22 02:50:26;;;;;;;14.35;8.13;;;13.00;99.90;;;-144.05;70.02;56904.06;5076781;28;20028;-81
2023/07/22 02:52:52;;;;;;;19.08;9.32;;;13.10;99.90;;;-144.05;70.09;56923.19;5076102;28;20053;-82
2023/07/22 02:55:18;;;;;;;15.90;8.93;;;13.10;99.90;;;-144.05;69.63;56908.31;5076365;28;20118;-81
2023/07/22 02:57:47;;;;;;;16.58;9.50;;;13.20;99.90;;;-144.05;69.57;56887.06;5076512;28;20031;-81
2023/07/22 03:00:23;;;;;;;13.43;9.07;;;13.20;99.90;;;-144.05;69.52;56882.81;5075504;28;20038;-81
2023/07/22 03:03:01;;;;;;;16.48;9.18;;;13.20;99.90;;;-144.05;69.25;56910.44;5075356;28;20032;-81
2023/07/22 03:05:30;;;;;;;17.30;9.02;;;13.30;99.90;;;-144.05;69.08;56914.69;5074250;28;20038;-81
2023/07/22 03:07:57;;;;;;;19.98;8.90;;;13.40;99.90;;;-144.05;68.47;56878.56;5074275;28;20024;-80
2023/07/22 03:10:25;;;;;;;11.65;7.88;;;13.40;99.90;;;-144.05;67.78;56884.94;5073886;28;20102;-82
2023/07/22 03:12:55;;;;;;;15.52;8.55;;;13.50;99.90;;;-144.05;67.58;56887.06;5073942;28;20084;-81
2023/07/22 03:15:26;;;;;;;14.60;8.02;;;13.60;99.90;;;-144.05;67.49;56914.69;5074087;28;20043;-81
2023/07/22 03:17:53;;;;;;;11.40;7.43;;;13.70;99.90;;;-144.05;67.24;56925.28;5074324;28;20476;-81
2023/07/22 03:20:19;;;;;;;11.90;8.13;;;13.70;99.90;;;-144.05;66.80;56895.56;5092386;28;20028;-82
2023/07/22 03:22:46;;;;;;;10.82;7.90;;;13.70;99.90;;;-144.05;66.44;56891.31;5092068;28;20024;-81
2023/07/22 03:25:16;;;;;;;12.55;7.93;;;13.70;99.90;;;-144.05;66.81;56910.44;5091998;28;20181;-82
2023/07/22 03:27:44;;;;;;;12.27;8.32;;;13.80;99.90;;;-144.05;65.82;56916.81;5073919;28;20464;-81
2023/07/22 03:30:16;;;;;;;12.35;7.60;;;13.90;99.90;;;-144.05;66.31;56895.56;5073808;28;20489;-81
2023/07/22 03:32:45;;;;;;;12.48;7.90;;;13.90;99.90;;;-144.05;66.29;56901.94;5073713;28;20165;-81
2023/07/22 03:35:11;;;;;;;13.18;7.80;;;13.90;99.90;;;-144.05;65.41;56916.81;5073899;28;20027;-81
2023/07/22 03:37:39;;;;;;;15.20;8.25;;;13.90;99.90;;;-144.05;65.53;56897.69;5073684;28;20036;-80
2023/07/22 03:40:07;;;;;;;11.02;7.43;;;13.90;99.90;;;-144.05;65.43;56906.19;5073713;28;20050;-82
2023/07/22 03:42:34;;;;;;;15.75;8.63;;;14.00;99.90;;;-144.05;65.95;56901.94;5073815;28;20032;-82
2023/07/22 03:45:01;;;;;;;14.52;8.30;;;14.00;99.90;;;-144.05;65.06;56918.94;5092012;28;20028;-83
2023/07/22 03:47:27;;;;;;;12.60;7.63;;;14.00;99.90;;;-144.05;65.25;56910.44;5073694;28;20115;-81
2023/07/22 03:49:52;;;;;;;11.05;7.93;;;14.00;99.90;;;-144.05;65.13;56914.69;5073753;28;20570;-83
2023/07/22 03:52:18;;;;;;;11.40;7.57;;;14.10;99.90;;;-144.05;64.85;56914.69;5075315;28;20028;-81
2023/07/22 03:54:45;;;;;;;13.95;8.70;;;14.10;99.90;;;-144.05;64.19;56891.31;5074784;28;20139;-80
2023/07/22 03:57:10;;;;;;;13.18;7.88;;;14.10;99.90;;;-144.05;63.97;56882.81;5073605;28;20119;-81
2023/07/22 03:59:36;;;;;;;11.55;7.30;;;14.20;99.90;;;-144.05;63.84;56870.06;5073665;28;20063;-81
2023/07/22 04:02:03;;;;;;;13.00;7.82;;;14.20;99.90;;;-144.05;64.03;56906.19;5073329;28;20376;-81
2023/07/22 04:04:29;;;;;;;14.00;8.48;;;14.20;99.90;;;-144.05;64.09;56891.31;5073454;28;20046;-80
2023/07/22 04:06:55;;;;;;;12.90;7.20;;;14.20;99.90;;;-144.05;63.71;56904.06;5073024;28;20464;-79
2023/07/22 04:09:21;;;;;;;16.77;8.60;;;14.20;99.90;;;-144.05;63.34;56906.19;5091549;28;20021;-81
2023/07/22 04:11:46;;;;;;;14.10;8.82;;;14.20;99.90;;;-144.05;63.62;56912.56;5073627;28;20024;-82
2023/07/22 04:14:12;;;;;;;14.30;8.05;;;14.20;99.90;;;-144.05;62.83;56914.69;5073510;28;20063;-82
2023/07/22 04:16:39;;;;;;;13.80;8.43;;;14.20;99.90;;;-144.05;63.40;56895.56;5084372;28;20046;-82
2023/07/22 04:19:06;;;;;;;12.60;8.75;;;14.20;99.90;;;-144.05;63.11;56912.56;5095802;28;20055;-82
2023/07/22 04:21:31;;;;;;;10.90;7.72;;;14.20;99.90;;;-144.05;62.76;56897.69;5094074;28;20081;-82
2023/07/22 04:23:57;;;;;;;12.20;8.20;;;14.20;99.90;;;-144.05;62.99;56908.31;5093541;28;20040;-83
2023/07/22 04:26:23;;;;;;;13.20;7.57;;;14.20;99.90;;;-144.05;63.03;56893.44;5069099;28;20047;-83
2023/07/22 04:28:49;;;;;;;12.70;7.68;;;14.20;99.90;;;-144.05;62.75;56904.06;5070154;28;20033;-82
2023/07/22 04:31:15;;;;;;;11.38;7.60;;;14.30;99.90;;;-144.05;62.62;56897.69;5053566;28;20434;-83
2023/07/22 04:33:41;;;;;;;12.00;7.65;;;14.30;99.90;;;-144.05;62.14;56867.94;5071956;28;20032;-81
2023/07/22 04:36:07;;;;;;;11.52;7.88;;;14.30;99.90;;;-144.05;61.89;56893.44;5071467;28;20465;-83
2023/07/22 04:38:33;;;;;;;11.75;7.32;;;14.30;99.90;;;-144.05;61.88;56861.56;5053523;28;20124;-84
2023/07/22 04:41:01;;;;;;;13.75;6.97;;;14.40;99.90;;;-144.05;61.65;56893.44;5053849;28;20060;-83
2023/07/22 04:43:27;;;;;;;12.23;7.07;;;14.40;99.90;;;-144.05;61.26;56889.19;5053984;28;20082;-81
2023/07/22 04:45:53;;;;;;;11.98;7.47;;;14.40;99.90;;;-144.05;61.48;56895.56;5054204;28;20029;-84
2023/07/22 04:48:23;;;;;;;10.63;6.75;;;14.40;99.90;;;-144.05;61.16;56923.19;5074555;28;20039;-83
2023/07/22 04:50:49;;;;;;;14.90;7.93;;;14.50;99.90;;;-144.05;60.95;56884.94;5057802;28;20047;-83
2023/07/22 04:53:18;;;;;;;10.63;6.97;;;14.50;99.90;;;-144.05;61.61;56893.44;5076620;28;20020;-83
2023/07/22 04:55:43;;;;;;;12.15;7.65;;;14.60;99.90;;;-144.05;62.89;56870.06;5058772;28;20059;-83
2023/07/22 04:58:10;;;;;;;11.77;7.43;;;14.40;99.90;;;-144.05;63.09;56882.81;5075211;28;20028;-81
2023/07/22 05:00:37;;;;;;;10.65;7.07;;;14.40;99.90;;;-144.05;62.81;56923.19;5058644;28;20564;-81
2023/07/22 05:03:05;;;;;;;15.82;7.70;;;14.40;99.90;;;-144.05;62.86;56901.94;5058903;28;20032;-84
2023/07/22 05:05:32;;;;;;;14.57;7.15;;;14.40;99.90;;;-144.05;62.13;56901.94;5058943;28;20096;-82
2023/07/22 05:07:58;;;;;;;12.68;7.63;;;14.50;99.90;;;-144.05;62.08;56878.56;5059380;28;20025;-79
2023/07/22 05:10:24;;;;;;;11.55;6.60;;;14.50;99.90;;;-144.05;61.28;56867.94;5059255;28;20078;-81
2023/07/22 05:12:50;;;;;;;9.23;7.05;;;14.60;99.90;;;-144.05;61.77;56912.56;5076950;28;20032;-82
2023/07/22 05:15:15;;;;;;;9.98;6.60;;;14.60;99.90;;;-144.05;61.25;56857.34;5058812;28;20483;-84
2023/07/22 05:17:42;;;;;;;9.55;6.38;;;14.70;99.90;;;-144.05;60.86;56884.94;5076612;28;20029;-82
2023/07/22 05:20:12;;;;;;;11.43;6.90;;;14.70;99.90;;;-144.05;60.55;56901.94;5058868;28;20055;-83
2023/07/22 05:22:39;;;;;;;9.52;6.35;;;14.80;99.90;;;-144.05;60.68;56912.56;5059408;28;20059;-83
2023/07/22 05:25:07;;;;;;;9.95;6.38;;;14.90;99.90;;;-144.05;60.18;56906.19;5077159;28;20036;-83
2023/07/22 05:27:33;;;;;;;8.88;6.43;;;14.90;99.90;;;-144.05;60.38;56908.31;5073241;28;20035;-82
2023/07/22 05:30:00;;;;;;;8.75;6.10;;;15.00;99.90;;;-144.05;59.92;56887.06;5079791;28;20434;-84
2023/07/22 05:32:29;;;;;;;10.85;6.78;;;15.00;99.90;;;-144.05;59.98;56908.31;5104025;28;20031;-84
2023/07/22 05:34:56;;;;;;;8.45;5.97;;;15.10;99.90;;;-144.05;59.87;56904.06;5108037;28;20020;-82
2023/07/22 05:37:24;;;;;;;10.70;6.68;;;15.10;99.90;;;-144.05;59.21;56884.94;5093222;28;20091;-85
2023/07/22 05:39:50;;;;;;;10.50;6.32;;;15.20;99.90;;;-144.05;58.37;56918.94;5119431;28;20042;-81
2023/07/22 05:42:18;;;;;;;8.05;5.22;;;15.30;99.90;;;-144.05;58.30;56904.06;5115521;28;20150;-82
2023/07/22 05:44:43;;;;;;;8.50;5.68;;;15.30;99.90;;;-144.05;58.23;56908.31;5106978;28;20544;-81
2023/07/22 05:47:09;;;;;;;8.32;5.63;;;15.30;99.90;;;-144.05;58.17;56901.94;5076840;28;20032;-81
2023/07/22 05:49:35;;;;;;;8.68;6.65;;;15.30;99.90;;;-144.05;58.73;56895.56;5095201;28;20020;-81
2023/07/22 05:52:01;;;;;;;8.63;5.57;;;15.30;99.90;;;-144.05;59.09;56925.28;5076916;28;20476;-81
2023/07/22 05:54:27;;;;;;;10.18;6.07;;;15.30;99.90;;;-144.05;58.92;56897.69;5095573;28;20361;-81
2023/07/22 05:56:53;;;;;;;9.15;5.85;;;15.40;99.90;;;-144.05;57.68;56891.31;5095507;28;20115;-83
2023/07/22 05:59:19;;;;;;;9.93;5.60;;;15.60;99.90;;;-144.05;57.05;56895.56;5094042;28;20024;-81
2023/07/22 06:01:45;;;;;;;6.90;5.03;;;15.80;99.90;;;-144.05;55.74;56912.56;5095364;28;20028;-83
2023/07/22 06:04:11;;;;;;;12.65;6.10;;;16.10;99.90;;;-144.05;55.91;56906.19;5095524;28;20133;-82
2023/07/22 06:06:37;;;;;;;8.48;5.72;;;16.40;99.90;;;-144.05;54.65;56910.44;5095366;28;20035;-83
2023/07/22 06:09:02;;;;;;;10.35;5.57;;;16.80;99.90;;;-144.05;52.74;56887.06;5076453;28;20039;-81
2023/07/22 06:11:28;;;;;;;9.20;5.20;;;17.20;99.90;;;-144.05;51.42;56921.06;5076567;28;20082;-84
2023/07/22 06:13:54;;;;;;;8.85;6.25;;;17.60;99.90;;;-144.05;50.44;56910.44;5099457;28;20046;-79
2023/07/22 06:16:20;;;;;;;7.50;5.25;;;17.70;99.90;;;-144.05;49.64;56908.31;5100001;28;20044;-82
2023/07/22 06:18:46;;;;;;;6.97;5.15;;;17.70;99.90;;;-144.05;49.38;56908.31;5075987;28;20034;-82
2023/07/22 06:21:12;;;;;;;7.68;5.15;;;17.70;99.90;;;-144.05;49.14;56899.81;5094781;28;20035;-81
2023/07/22 06:23:38;;;;;;;9.63;5.00;;;17.70;99.90;;;-144.05;49.67;56904.06;5094982;28;20024;-82
2023/07/22 06:26:04;;;;;;;6.70;4.90;;;17.80;99.90;;;-144.05;48.71;56910.44;5074429;28;20024;-82
2023/07/22 06:28:30;;;;;;;8.65;5.40;;;18.00;99.90;;;-144.05;47.55;56887.06;5056318;28;20077;-83
2023/07/22 06:30:57;;;;;;;8.93;5.28;;;18.30;99.90;;;-144.05;47.24;56916.81;5056839;28;20094;-82
2023/07/22 06:33:23;;;;;;;7.78;5.20;;;18.50;99.90;;;-144.05;46.73;56923.19;5057134;28;20039;-84
2023/07/22 06:35:48;;;;;;;5.82;4.50;;;18.50;99.90;;;-144.05;47.15;56895.56;5074818;28;20032;-84
2023/07/22 06:38:14;;;;;;;7.20;5.57;;;18.60;99.90;;;-144.05;47.41;56931.66;5075708;28;20040;-83
2023/07/22 06:40:40;;;;;;;9.75;5.90;;;18.50;99.90;;;-144.05;47.09;56914.69;5057418;28;20025;-84
2023/07/22 06:43:06;;;;;;;7.25;5.32;;;18.50;99.90;;;-144.05;47.37;56914.69;5074455;28;20029;-85
2023/07/22 06:45:33;;;;;;;8.02;5.15;;;18.50;99.90;;;-144.05;47.39;56925.28;5057599;28;20060;-84
2023/07/22 06:47:59;;;;;;;9.27;5.80;;;18.60;99.90;;;-144.05;46.97;56925.28;5056325;28;20029;-82
2023/07/22 06:50:25;;;;;;;7.72;5.82;;;18.60;99.90;;;-144.05;46.59;56910.44;5056588;28;20025;-84
2023/07/22 06:52:51;;;;;;;8.43;5.22;;;19.00;99.90;;;-144.05;46.73;56933.78;5055790;28;20032;-83
2023/07/22 06:55:17;;;;;;;9.40;5.68;;;19.40;99.90;;;-144.05;44.61;56916.81;5057400;28;20029;-84
2023/07/22 06:57:43;;;;;;;8.65;5.93;;;19.40;99.90;;;-144.05;44.65;56921.06;5077266;28;20036;-82
2023/07/22 07:00:10;;;;;;;7.55;5.30;;;19.40;99.90;;;-144.05;43.92;56895.56;5059747;28;20056;-82
2023/07/22 07:02:36;;;;;;;7.30;5.30;;;19.70;99.90;;;-144.05;44.04;56923.19;5060345;28;20067;-81
2023/07/22 07:05:03;;;;;;;11.60;6.22;;;19.90;99.90;;;-144.05;44.27;56933.78;5075939;28;20067;-84
2023/07/22 07:07:29;;;;;;;7.90;5.63;;;20.00;99.90;;;-144.05;43.08;56918.94;5058308;28;20029;-83
2023/07/22 07:09:55;;;;;;;11.32;6.03;;;20.10;99.90;;;-144.05;43.36;56942.28;5059487;28;20063;-83
2023/07/22 07:12:22;;;;;;;6.82;4.82;;;20.20;99.90;;;-144.05;43.57;56933.78;5059277;28;20037;-82
2023/07/22 07:14:51;;;;;;;7.68;5.57;;;20.20;99.90;;;-144.05;42.81;56950.78;5076407;28;20079;-83
2023/07/22 07:17:18;;;;;;;8.73;6.15;;;20.30;99.90;;;-144.05;41.81;56933.78;5058149;28;20035;-81
2023/07/22 07:19:44;;;;;;;8.65;5.28;;;20.40;99.90;;;-144.05;42.07;56938.03;5076460;28;20036;-84
2023/07/22 07:22:09;;;;;;;9.15;5.88;;;20.60;99.90;;;-144.05;41.28;56923.19;5059446;28;20046;-82
2023/07/22 07:24:36;;;;;;;8.48;6.50;;;20.60;99.90;;;-144.05;41.45;56952.91;5058903;28;20024;-84
2023/07/22 07:27:02;;;;;;;5.88;4.95;;;20.60;99.90;;;-144.05;42.25;56946.53;5085616;28;20096;-82
2023/07/22 07:29:28;;;;;;;6.53;5.20;;;20.60;99.90;;;-144.05;42.18;56940.16;5078437;28;20118;-83
2023/07/22 07:31:54;;;;;;;7.45;5.18;;;20.70;99.90;;;-144.05;42.23;56927.41;5080046;28;20028;-84
2023/07/22 07:34:19;;;;;;;7.30;5.90;;;21.00;99.90;;;-144.05;41.64;56944.41;5099561;28;20050;-84
2023/07/22 07:36:45;;;;;;;8.63;5.70;;;21.10;99.90;;;-144.05;40.43;56961.41;5078841;28;20028;-84
2023/07/22 07:39:11;;;;;;;9.32;6.00;;;21.10;99.90;;;-144.05;40.79;56950.78;5078006;28;20127;-83
2023/07/22 07:41:37;;;;;;;7.68;5.13;;;21.10;99.90;;;-144.05;43.11;56931.66;5094743;28;20448;-82
2023/07/22 07:44:04;;;;;;;9.52;5.60;;;21.00;99.90;;;-144.05;41.88;56929.53;5094829;28;20031;-84
2023/07/22 07:46:30;;;;;;;6.13;5.28;;;21.00;99.90;;;-144.05;41.71;56957.16;5076770;28;20395;-85
2023/07/22 07:49:00;;;;;;;9.10;5.55;;;21.20;99.90;;;-144.05;41.14;56929.53;5076563;28;20024;-81
2023/07/22 07:51:30;;;;;;;9.88;5.50;;;21.10;99.90;;;-144.05;40.15;56957.16;5103375;28;20089;-81
2023/07/22 07:53:58;;;;;;;7.68;5.45;;;20.90;99.90;;;-144.05;40.51;56948.66;5079432;28;20021;-83
2023/07/22 07:56:25;;;;;;;9.50;5.72;;;20.70;99.90;;;-144.05;40.68;56931.66;5077432;28;20020;-85
2023/07/22 07:58:53;;;;;;;9.40;5.30;;;20.60;99.90;;;-144.05;40.75;56957.16;5095906;28;20391;-83
2023/07/22 08:01:20;;;;;;;10.07;5.93;;;20.60;99.90;;;-144.05;40.33;56940.16;5078317;28;20028;-83
2023/07/22 08:03:46;;;;;;;8.10;5.63;;;20.70;99.90;;;-144.05;40.65;56961.41;5077817;28;20325;-85
2023/07/22 08:06:13;;;;;;;8.23;5.70;;;21.10;99.90;;;-144.05;40.96;56952.91;5079414;28;20040;-82
2023/07/22 08:08:40;;;;;;;10.00;5.70;;;21.40;99.90;;;-144.05;40.52;56961.41;5097713;22;20028;-80
2023/07/22 08:11:13;;;;;;;10.75;6.32;;;21.40;99.90;;;-144.05;39.75;56948.66;5057646;28;20215;-81
2023/07/22 08:13:41;;;;;;;10.00;5.72;;;21.50;99.90;;;-144.05;39.41;56965.66;5058111;28;20021;-82
2023/07/22 08:16:11;;;;;;;8.52;5.88;;;21.30;99.90;;;-144.05;40.24;56938.03;5072596;28;20052;-83
2023/07/22 08:18:38;;;;;;;8.38;6.10;;;21.10;99.90;;;-144.05;40.20;56942.28;5056288;28;20609;-81
2023/07/22 08:21:07;;;;;;;7.35;5.53;;;21.20;99.90;;;-144.05;40.58;56944.41;5056148;28;20095;-81
2023/07/22 08:23:33;;;;;;;12.10;6.50;;;21.20;99.90;;;-144.05;40.02;56978.41;5059027;28;20029;-82
2023/07/22 08:25:59;;;;;;;8.70;6.72;;;21.00;99.90;;;-144.05;39.77;56950.78;5060889;28;20037;-84
2023/07/22 08:28:25;;;;;;;7.25;6.00;;;20.90;99.90;;;-144.05;40.34;56938.03;5083745;28;20032;-82
2023/07/22 08:30:55;;;;;;;14.73;6.60;;;20.90;99.90;;;-144.05;39.67;56938.03;5088924;28;20024;-79
2023/07/22 08:33:23;;;;;;;10.50;6.15;;;21.00;99.90;;;-144.05;40.91;56929.53;5092689;28;20020;-82
2023/07/22 08:35:51;;;;;;;11.07;6.57;;;21.00;99.90;;;-144.05;39.79;56991.13;5093324;28;20029;-82
2023/07/22 08:38:17;;;;;;;10.55;6.57;;;21.10;99.90;;;-144.05;39.86;56950.78;5090482;28;20100;-82
2023/07/22 08:40:43;;;;;;;9.50;5.80;;;21.00;99.90;;;-144.05;39.28;56933.78;5082828;28;20475;-84
2023/07/22 08:43:11;;;;;;;12.40;6.15;;;21.40;99.90;;;-144.05;38.63;56965.66;5077744;28;20033;-84
2023/07/22 08:45:39;;;;;;;8.75;6.32;;;21.70;99.90;;;-144.05;38.37;56972.03;5077819;28;20028;-83
2023/07/22 08:48:12;;;;;;;8.98;6.07;;;21.80;99.90;;;-144.05;38.23;56946.53;5076354;28;20479;-82
2023/07/22 08:50:59;;;;;;;8.75;6.00;;;22.00;99.90;;;-144.05;39.01;56965.66;5078404;28;20032;-83
2023/07/22 08:53:26;;;;;;;10.82;6.32;;;21.90;99.90;;;-144.05;37.62;56959.28;5081402;28;20066;-84
2023/07/22 08:55:53;;;;;;;7.53;5.35;;;22.30;99.90;;;-144.05;36.85;56980.53;5083481;28;20029;-81
2023/07/22 08:58:20;;;;;;;11.02;6.18;;;22.70;99.90;;;-144.05;35.88;56980.53;5079870;28;20029;-82
2023/07/22 09:00:48;;;;;;;9.23;6.07;;;22.80;99.90;;;-144.05;35.67;56967.78;5079449;28;20039;-83
2023/07/22 09:03:15;;;;;;;8.60;6.18;;;22.90;99.90;;;-144.05;37.40;56974.16;5079838;28;20112;-81
2023/07/22 09:05:45;;;;;;;7.53;5.50;;;22.40;99.90;;;-144.05;37.07;56957.16;5079327;28;20029;-80
2023/07/22 09:08:11;;;;;;;8.60;5.95;;;22.30;99.90;;;-144.05;36.67;56965.66;5080437;28;20438;-80
2023/07/22 09:10:39;;;;;;;6.93;5.07;;;22.20;99.90;;;-144.05;36.51;56993.25;5080259;28;20033;-80
2023/07/22 09:13:06;;;;;;;9.98;6.35;;;22.40;99.90;;;-144.05;36.72;56978.41;5081685;28;20052;-82
2023/07/22 09:15:36;;;;;;;7.55;5.82;;;22.50;99.90;;;-144.05;37.92;56952.91;5080188;28;20032;-81
2023/07/22 09:18:05;;;;;;;7.30;5.82;;;22.10;99.90;;;-144.05;37.36;56980.53;5079132;28;20413;-82
2023/07/22 09:20:32;;;;;;;10.07;5.53;;;22.10;99.90;;;-144.05;38.34;56942.28;5079361;28;20479;-83
2023/07/22 09:23:00;;;;;;;7.25;5.20;;;21.60;99.90;;;-144.05;37.65;56963.53;5093909;28;20028;-81
2023/07/22 09:25:28;;;;;;;7.68;5.05;;;21.50;99.90;;;-144.05;37.74;56961.41;5086831;28;20103;-83
2023/07/22 09:28:04;;;;;;;6.90;5.13;;;21.10;99.90;;;-144.05;38.65;56938.03;5068219;28;20116;-81
2023/07/22 09:30:34;;;;;;;8.52;4.88;;;21.00;99.90;;;-144.05;39.81;56942.28;5066128;28;20029;-81
2023/07/22 09:33:03;;;;;;;8.00;5.53;;;20.70;99.90;;;-144.05;39.38;56959.28;5063805;28;20025;-80
2023/07/22 09:35:47;;;;;;;7.07;5.32;;;20.60;99.90;;;-144.05;41.06;56935.91;5061509;28;20025;-81
2023/07/22 09:38:17;;;;;;;7.25;5.32;;;20.40;99.90;;;-144.05;39.90;56935.91;5058645;28;20033;-81
2023/07/22 09:40:43;;;;;;;7.75;5.10;;;20.30;99.90;;;-144.05;40.13;56923.19;5058177;28;20029;-82
2023/07/22 09:43:12;;;;;;;7.43;5.78;;;20.30;99.90;;;-144.05;39.57;56933.78;5060506;28;20060;-81
2023/07/22 09:45:38;;;;;;;7.90;5.57;;;20.30;99.90;;;-144.05;40.24;56921.06;5057713;28;20113;-82
2023/07/22 09:48:05;;;;;;;8.35;5.75;;;20.30;99.90;;;-144.05;40.38;56948.66;5058915;28;20032;-80
2023/07/22 09:50:31;;;;;;;10.02;6.15;;;20.30;99.90;;;-144.05;39.96;56940.16;5058628;28;20487;-81
2023/07/22 09:53:00;;;;;;;8.90;5.22;;;20.30;99.90;;;-144.05;40.93;56927.41;5058674;28;20488;-82
2023/07/22 09:55:29;;;;;;;8.55;5.90;;;20.50;99.90;;;-144.05;40.93;56925.28;5058078;28;20423;-82
2023/07/22 09:58:05;;;;;;;9.50;5.25;;;20.60;99.90;;;-144.05;41.35;56935.91;5057567;28;20359;-81
2023/07/22 10:00:36;;;;;;;7.90;5.15;;;20.80;99.90;;;-144.05;40.43;56935.91;5059822;28;20479;-81
2023/07/22 10:03:09;;;;;;;9.80;5.25;;;21.00;99.90;;;-144.05;39.95;56933.78;5057738;28;20064;-80